CheckWX is a tool to help pilots better visualize weather data.  It is not intended as a substitute for an official pre-flight weather briefing.

16:42:45 UTC

KSZT METAR
Sandpoint Airport
Sandpoint, Idaho, USA
Current

28 mins ago

KSZT 251615Z AUTO 00000KT 5SM BR OVC022 01/01 A3003 RMK AO2
Observed
Jan-25 @ 16:15 UTC
Visibility
5 SM
Flight Rules
MVFR
Conditions
Mist
Cloud Levels
  • Overcast at 2,200' AGL
Temperature
C / 34°F
Dewpoint
C / 34°F
Humidity
100%
Altimeter
30.03" Hg
Pressure
1016.92 hPa
Previous

48 mins ago

KSZT 251555Z AUTO 00000KT 10SM SCT008 SCT024 OVC037 01/01 A3004 RMK AO2
Observed
Jan-25 @ 15:55 UTC
Visibility
10 SM
Flight Rules
VFR
Cloud Levels
  • Scattered at 800' AGL
  • Scattered at 2,400' AGL
  • Overcast at 3,700' AGL
Temperature
C / 34°F
Dewpoint
C / 34°F
Humidity
100%
Altimeter
30.04" Hg
Pressure
1017.32 hPa
Previous

1 hour ago

KSZT 251535Z AUTO 03005KT 10SM SCT027 OVC037 01/01 A3003 RMK AO2
Observed
Jan-25 @ 15:35 UTC
Wind
  • 030° at 5 KTS
Visibility
10 SM
Flight Rules
VFR
Cloud Levels
  • Scattered at 2,700' AGL
  • Overcast at 3,700' AGL
Temperature
C / 34°F
Dewpoint
C / 34°F
Humidity
100%
Altimeter
30.03" Hg
Pressure
1016.92 hPa